Nakaei Maru — JK5610 — position and weather

sailwx.info

Track history (hours):
 
Tides and Currents Weather Stations Pressure Air Temp Water Temp Dewpoint Dewpoint Depression Visibility Wind Speed Wind Dir Waves Ship Positions

Nakaei Maru

Last reported at 2018-Jul-21 04:52 UTC. Time now 2018-Jul-21 19:34 UTC.
Position N 35°33' E 139°60'.

Length 95 m; draft 4 m.

Type: Tanker. MMSI: 431401925.

Date/timePositionNaut miles runAvg speedWind from/ knotsBaromVisibWave heightAir tempDewpointWater temp
2018-Jul-21 04:52N 35°33' E 139°60'412.4
2018-Jul-21 04:30N 35°32' E 139°55'510.9
2018-Jul-21 04:00N 35°32' E 139°48'0 0.4
2018-Jul-21 03:30N 35°32' E 139°48'0 0.0
2018-Jul-21 02:57N 35°32' E 139°48'0 0.0
2018-Jul-21 02:30N 35°32' E 139°48'0 0.0
2018-Jul-21 02:00N 35°32' E 139°48'0 0.0
2018-Jul-21 01:30N 35°32' E 139°48'0 0.0
2018-Jul-21 01:00N 35°32' E 139°48'0 0.0
2018-Jul-21 00:30N 35°32' E 139°48'0 0.0
2018-Jul-21 00:00N 35°32' E 139°48'1 2.5
2018-Jul-20 23:31N 35°31' E 139°49'1 2.1
2018-Jul-20 22:58N 35°31' E 139°50'0 0.0
2018-Jul-20 22:28N 35°31' E 139°50'0 0.0
2018-Jul-20 21:57N 35°31' E 139°50'0 0.0
2018-Jul-20 21:31N 35°31' E 139°50'0 0.0
2018-Jul-20 20:58N 35°31' E 139°50'0 0.0
2018-Jul-20 20:30N 35°31' E 139°50'0 0.0
2018-Jul-20 19:58N 35°31' E 139°50'0 0.0
2018-Jul-20 19:21N 35°31' E 139°50'0 0.0
2018-Jul-20 18:57N 35°31' E 139°50'0 0.0
2018-Jul-20 18:30N 35°31' E 139°50'0 0.0
2018-Jul-20 18:00N 35°31' E 139°50'0 0.0
2018-Jul-20 16:54N 35°31' E 139°50'0 0.0
2018-Jul-20 16:30N 35°31' E 139°50'0 0.0
2018-Jul-20 16:00N 35°31' E 139°50'0 0.0
2018-Jul-20 15:30N 35°31' E 139°50'0 0.0
2018-Jul-20 14:57N 35°31' E 139°50'0 0.0
2018-Jul-20 14:27N 35°31' E 139°50'0 0.0
2018-Jul-20 13:51N 35°31' E 139°50'0 0.0
2018-Jul-20 13:30N 35°31' E 139°50'0 0.0
2018-Jul-20 13:00N 35°31' E 139°50'0 0.1
2018-Jul-20 12:18N 35°31' E 139°50'0 0.0
2018-Jul-20 11:51N 35°31' E 139°50'0 0.0
2018-Jul-20 11:30N 35°31' E 139°50'0 0.0
2018-Jul-20 10:48N 35°31' E 139°50'0 0.0
2018-Jul-20 09:36N 35°31' E 139°50'0 0.5
2018-Jul-20 09:28N 35°31' E 139°50'3 7.4
2018-Jul-20 09:00N 35°31' E 139°46'1 0.1
2018-Jul-19 23:55N 35°31' E 139°46'1 1.9
2018-Jul-19 23:30N 35°30' E 139°46'4 8.1
2018-Jul-19 23:00N 35°27' E 139°43'611.5
2018-Jul-19 22:30N 35°30' E 139°49'0 0.3
2018-Jul-19 21:58N 35°30' E 139°50'0 0.0
2018-Jul-19 21:28N 35°30' E 139°50'0 0.0
2018-Jul-19 20:55N 35°30' E 139°50'0 0.0
2018-Jul-19 20:28N 35°30' E 139°50'0 0.0
2018-Jul-19 19:58N 35°30' E 139°50'0 0.0
2018-Jul-19 19:28N 35°30' E 139°50'0 0.0
2018-Jul-19 18:58N 35°30' E 139°50'0 0.0
2018-Jul-19 18:28N 35°30' E 139°50'0 0.0
2018-Jul-19 17:58N 35°30' E 139°50'0 0.0
2018-Jul-19 17:28N 35°30' E 139°50'0 0.0
2018-Jul-19 16:58N 35°30' E 139°50'0 0.0
2018-Jul-19 16:28N 35°30' E 139°50'0 0.0
2018-Jul-19 15:58N 35°30' E 139°50'0 0.0
2018-Jul-19 15:28N 35°30' E 139°50'0 0.0
2018-Jul-19 14:58N 35°30' E 139°50'0 0.0
2018-Jul-19 13:58N 35°30' E 139°50'0 0.0
2018-Jul-19 13:28N 35°30' E 139°50'0 0.0
2018-Jul-19 12:58N 35°30' E 139°50'0 0.0
2018-Jul-19 12:28N 35°30' E 139°50'0 0.0
2018-Jul-19 11:58N 35°30' E 139°50'0 0.0
2018-Jul-19 11:28N 35°30' E 139°50'0 0.0
2018-Jul-19 10:58N 35°30' E 139°50'0 0.0
2018-Jul-19 10:28N 35°30' E 139°50'0 0.0
2018-Jul-19 09:58N 35°30' E 139°50'0 0.0
2018-Jul-19 09:28N 35°30' E 139°50'0 0.0
2018-Jul-19 08:55N 35°30' E 139°50'0 0.0
2018-Jul-19 08:28N 35°30' E 139°50'0 0.0
2018-Jul-19 07:58N 35°30' E 139°50'0 0.0
2018-Jul-19 07:28N 35°30' E 139°50'0 0.0
2018-Jul-19 06:58N 35°30' E 139°50'0 0.0
2018-Jul-19 06:25N 35°30' E 139°50'0 0.0
2018-Jul-19 05:58N 35°30' E 139°50'0 0.1
2018-Jul-19 05:30N 35°30' E 139°49'3 5.2
2018-Jul-19 05:00N 35°32' E 139°48'0 0.0
2018-Jul-19 04:29N 35°32' E 139°48'0 0.0
2018-Jul-19 03:47N 35°32' E 139°48'0 0.0
2018-Jul-19 03:29N 35°32' E 139°48'0 0.0
2018-Jul-19 02:56N 35°32' E 139°48'0 0.0
2018-Jul-19 02:20N 35°32' E 139°48'0 0.0
2018-Jul-19 01:56N 35°32' E 139°48'0 0.0
2018-Jul-19 01:26N 35°32' E 139°48'0 0.0
2018-Jul-19 00:56N 35°32' E 139°48'0 0.0
2018-Jul-19 00:29N 35°32' E 139°48'1 1.8
2018-Jul-19 00:00N 35°31' E 139°48'2 2.5
2018-Jul-18 23:16N 35°30' E 139°50'0 0.0
2018-Jul-18 22:58N 35°30' E 139°50'0 0.1
2018-Jul-18 22:28N 35°30' E 139°50'0 0.0
2018-Jul-18 21:58N 35°30' E 139°50'0 0.0
2018-Jul-18 21:28N 35°30' E 139°50'0 0.0
2018-Jul-18 20:55N 35°30' E 139°50'0 0.0
2018-Jul-18 20:28N 35°30' E 139°50'0 0.0
2018-Jul-18 19:58N 35°30' E 139°50'0 0.0
2018-Jul-18 19:28N 35°30' E 139°50'0 0.0
2018-Jul-18 18:58N 35°30' E 139°50'0 0.0
2018-Jul-18 18:28N 35°30' E 139°50'0 0.0
2018-Jul-18 17:58N 35°30' E 139°50'0 0.1
2018-Jul-18 17:25N 35°30' E 139°50'0 0.1
2018-Jul-18 16:58N 35°30' E 139°50'0 0.0
2018-Jul-18 16:28N 35°30' E 139°50'0 0.0
2018-Jul-18 15:58N 35°30' E 139°50'0 0.0
2018-Jul-18 15:25N 35°30' E 139°50'0 0.0
2018-Jul-18 14:55N 35°30' E 139°50'0 0.0
2018-Jul-18 14:28N 35°30' E 139°50'0 0.0
2018-Jul-18 13:28N 35°30' E 139°50'0 0.0
2018-Jul-18 12:58N 35°30' E 139°50'0 0.0
2018-Jul-18 12:28N 35°30' E 139°50'0 0.1
2018-Jul-18 11:43N 35°30' E 139°50'0 0.0
2018-Jul-18 11:25N 35°30' E 139°50'0 0.0
2018-Jul-18 10:28N 35°30' E 139°50'0 0.0
2018-Jul-18 09:55N 35°30' E 139°50'0 0.0
2018-Jul-18 09:25N 35°30' E 139°50'0 0.0
2018-Jul-18 08:58N 35°30' E 139°50'0 0.0
2018-Jul-18 08:28N 35°30' E 139°50'0 0.0
2018-Jul-18 07:55N 35°30' E 139°50'0 0.0
2018-Jul-18 07:28N 35°30' E 139°50'0 0.0
2018-Jul-18 06:58N 35°30' E 139°50'3 6.3
2018-Jul-18 06:30N 35°31' E 139°46'1 0.1
2018-Jul-17 22:11N 35°31' E 139°46'0 0.3
2018-Jul-17 22:00N 35°31' E 139°46'4 7.6
2018-Jul-17 21:30N 35°29' E 139°42'3 6.0
2018-Jul-17 21:00N 35°27' E 139°45'3 5.8
2018-Jul-17 20:30N 35°28' E 139°49'611.5
2018-Jul-17 20:00N 35°31' E 139°55'10 0.3
2018-Jul-16 04:43N 35°36' E 140°06'1 4.2
2018-Jul-16 04:24N 35°35' E 140°05'5 7.4
2018-Jul-16 03:44N 35°34' E 139°59'1 4.4
2018-Jul-16 03:27N 35°34' E 139°57'511.6
2018-Jul-16 02:59N 35°32' E 139°51'3 5.8
2018-Jul-16 02:30N 35°32' E 139°48'0 0.0
2018-Jul-16 01:59N 35°32' E 139°48'0 0.0
2018-Jul-16 01:26N 35°32' E 139°48'0 0.0
2018-Jul-16 00:59N 35°32' E 139°48'0 0.0
2018-Jul-16 00:26N 35°32' E 139°48'0 0.0
2018-Jul-15 23:59N 35°32' E 139°48'0 0.0
2018-Jul-15 23:23N 35°32' E 139°48'0 0.0
2018-Jul-15 22:59N 35°32' E 139°48'0 0.1
2018-Jul-15 22:30N 35°32' E 139°48'2 4.1
2018-Jul-15 22:00N 35°30' E 139°49'1 1.1
2018-Jul-15 21:29N 35°30' E 139°50'0 0.0
2018-Jul-15 20:59N 35°30' E 139°50'0 0.0
2018-Jul-15 20:29N 35°30' E 139°50'0 0.0
2018-Jul-15 19:59N 35°30' E 139°50'0 0.0
2018-Jul-15 19:26N 35°30' E 139°50'0 0.0
2018-Jul-15 18:59N 35°30' E 139°50'0 0.0
2018-Jul-15 18:29N 35°30' E 139°50'0 0.0
2018-Jul-15 17:59N 35°30' E 139°50'0 0.0
2018-Jul-15 17:23N 35°30' E 139°50'0 0.0
2018-Jul-15 16:59N 35°30' E 139°50'0 0.0
2018-Jul-15 16:11N 35°30' E 139°50'0 0.0
2018-Jul-15 15:50N 35°30' E 139°50'0 0.0
2018-Jul-15 15:14N 35°30' E 139°50'0 0.0
2018-Jul-15 14:59N 35°30' E 139°50'0 0.0
2018-Jul-15 14:20N 35°30' E 139°50'0 0.0
2018-Jul-15 13:59N 35°30' E 139°50'0 0.0
2018-Jul-15 13:29N 35°30' E 139°50'0 0.0
2018-Jul-15 12:56N 35°30' E 139°50'0 0.0
2018-Jul-15 12:29N 35°30' E 139°50'0 0.0
2018-Jul-15 11:56N 35°30' E 139°50'0 0.0
2018-Jul-15 11:26N 35°30' E 139°50'0 0.0
2018-Jul-15 10:59N 35°30' E 139°50'0 0.0
2018-Jul-15 10:29N 35°30' E 139°50'0 0.0
2018-Jul-15 09:59N 35°30' E 139°50'0 0.0
2018-Jul-15 09:29N 35°30' E 139°50'0 0.0
2018-Jul-15 08:59N 35°30' E 139°50'0 0.0
2018-Jul-15 08:29N 35°30' E 139°50'0 0.0
2018-Jul-15 07:56N 35°30' E 139°50'0 0.5
2018-Jul-15 07:31N 35°30' E 139°49'3 6.4
2018-Jul-15 07:00N 35°31' E 139°46'0 0.0
2018-Jul-14 22:24N 35°31' E 139°46'1 2.7
2018-Jul-14 22:00N 35°30' E 139°45'4 7.9
2018-Jul-14 21:30N 35°27' E 139°43'3 6.4
2018-Jul-14 21:00N 35°24' E 139°45'0 0.1
2018-Jul-14 20:30N 35°24' E 139°45'0 0.0
2018-Jul-14 20:00N 35°24' E 139°45'0 0.0
2018-Jul-14 19:30N 35°24' E 139°45'0 0.0
2018-Jul-14 19:00N 35°24' E 139°45'0 0.0
2018-Jul-14 18:30N 35°24' E 139°45'0 0.1
2018-Jul-14 18:00N 35°24' E 139°45'0 0.0
2018-Jul-14 17:30N 35°24' E 139°45'0 0.0
2018-Jul-14 17:00N 35°24' E 139°45'0 0.0
2018-Jul-14 16:30N 35°24' E 139°45'0 0.0
2018-Jul-14 16:00N 35°24' E 139°45'0 0.0
2018-Jul-14 15:30N 35°24' E 139°45'0 0.1
2018-Jul-14 15:00N 35°24' E 139°45'0 0.0
2018-Jul-14 14:00N 35°24' E 139°45'0 0.0
2018-Jul-14 13:30N 35°24' E 139°45'0 0.0
2018-Jul-14 13:00N 35°24' E 139°45'0 0.0
2018-Jul-14 12:30N 35°24' E 139°45'0 0.0
2018-Jul-14 12:00N 35°24' E 139°45'0 0.1
2018-Jul-14 11:30N 35°24' E 139°45'0 0.1
2018-Jul-14 11:00N 35°24' E 139°45'0 0.1
2018-Jul-14 10:30N 35°24' E 139°45'0 0.1
2018-Jul-14 10:00N 35°24' E 139°45'0 0.1
2018-Jul-14 09:30N 35°24' E 139°45'0 0.0
2018-Jul-14 09:00N 35°24' E 139°45'0 0.0
2018-Jul-14 08:27N 35°24' E 139°45'4 8.4
2018-Jul-14 08:00N 35°24' E 139°40'1 2.1
2018-Jul-14 07:28N 35°24' E 139°40'0 0.0
2018-Jul-14 06:58N 35°24' E 139°40'0 0.0
2018-Jul-14 06:28N 35°24' E 139°40'0 0.0
2018-Jul-14 05:58N 35°24' E 139°40'0 0.0
2018-Jul-14 05:28N 35°24' E 139°40'0 0.2
2018-Jul-14 05:00N 35°24' E 139°40'4 7.3
2018-Jul-14 04:30N 35°26' E 139°44'510.8
2018-Jul-14 04:00N 35°30' E 139°47'1 0.3
2018-Jul-14 01:19N 35°31' E 139°46'0 0.0
2018-Jul-13 23:01N 35°31' E 139°46'0 0.0
2018-Jul-13 22:55N 35°31' E 139°46'0 1.0
2018-Jul-13 22:30N 35°31' E 139°46'4 7.8
2018-Jul-13 22:01N 35°28' E 139°42'3 6.7
2018-Jul-13 21:30N 35°28' E 139°46'3 6.7
2018-Jul-13 21:00N 35°30' E 139°50'0 0.1
2018-Jul-13 20:15N 35°30' E 139°50'0 0.0
2018-Jul-13 20:00N 35°30' E 139°50'0 0.0
2018-Jul-13 19:30N 35°30' E 139°50'0 0.0
2018-Jul-13 19:00N 35°30' E 139°50'0 0.0
2018-Jul-13 18:30N 35°30' E 139°50'0 0.0
2018-Jul-13 17:54N 35°30' E 139°50'0 0.0
2018-Jul-13 17:18N 35°30' E 139°50'0 0.0
2018-Jul-13 17:00N 35°30' E 139°50'0 0.0
2018-Jul-13 16:30N 35°30' E 139°50'0 0.0
2018-Jul-13 16:00N 35°30' E 139°50'0 0.0
2018-Jul-13 15:30N 35°30' E 139°50'0 0.0
2018-Jul-13 14:57N 35°30' E 139°50'0 0.0
2018-Jul-13 13:51N 35°30' E 139°50'0 0.0
2018-Jul-13 13:24N 35°30' E 139°50'0 0.0
2018-Jul-13 13:00N 35°30' E 139°50'0 0.0
2018-Jul-13 12:24N 35°30' E 139°50'0 0.0
2018-Jul-13 12:00N 35°30' E 139°50'0 0.0
2018-Jul-13 11:30N 35°30' E 139°50'0 0.0
2018-Jul-13 10:54N 35°30' E 139°50'0 0.0
2018-Jul-13 10:30N 35°30' E 139°50'0 0.0
2018-Jul-13 10:00N 35°30' E 139°50'0 0.0
2018-Jul-13 09:30N 35°30' E 139°50'0 0.0
2018-Jul-13 08:48N 35°30' E 139°50'0 0.0
2018-Jul-13 08:24N 35°30' E 139°50'0 0.5
2018-Jul-13 08:00N 35°30' E 139°49'2 5.0
2018-Jul-13 07:31N 35°32' E 139°48'0 0.0
2018-Jul-13 06:59N 35°32' E 139°48'0 0.0
2018-Jul-13 06:26N 35°32' E 139°48'0 0.0
2018-Jul-13 05:59N 35°32' E 139°48'0 0.0
2018-Jul-13 05:29N 35°32' E 139°48'0 0.0
2018-Jul-13 04:56N 35°32' E 139°48'0 0.0
2018-Jul-13 04:26N 35°32' E 139°48'0 0.0
2018-Jul-13 03:59N 35°32' E 139°48'0 0.0
2018-Jul-13 03:08N 35°32' E 139°48'0 0.0
2018-Jul-13 02:59N 35°32' E 139°48'0 0.0
2018-Jul-13 02:26N 35°32' E 139°48'0 0.0
2018-Jul-13 01:56N 35°32' E 139°48'1 2.0
2018-Jul-13 01:30N 35°31' E 139°48'2 3.5
2018-Jul-13 00:58N 35°30' E 139°49'0 0.0
2018-Jul-13 00:28N 35°30' E 139°49'0 0.0
2018-Jul-12 23:55N 35°30' E 139°49'0 0.0
2018-Jul-12 23:04N 35°30' E 139°49'0 0.0
2018-Jul-12 22:58N 35°30' E 139°49'0 0.0
2018-Jul-12 22:28N 35°30' E 139°49'0 0.0
2018-Jul-12 21:58N 35°30' E 139°49'0 0.0
2018-Jul-12 21:22N 35°30' E 139°49'0 0.0
2018-Jul-12 20:52N 35°30' E 139°49'0 0.0
2018-Jul-12 20:28N 35°30' E 139°49'0 0.0
2018-Jul-12 19:52N 35°30' E 139°49'0 0.1
2018-Jul-12 19:28N 35°30' E 139°49'0 0.0
2018-Jul-12 18:58N 35°30' E 139°49'0 0.1
2018-Jul-12 18:25N 35°30' E 139°50'0 0.0
2018-Jul-12 17:58N 35°30' E 139°50'0 0.0
2018-Jul-12 17:16N 35°30' E 139°50'0 0.0
2018-Jul-12 16:49N 35°30' E 139°50'0 0.0
2018-Jul-12 16:25N 35°30' E 139°50'0 0.0
2018-Jul-12 15:58N 35°30' E 139°50'0 0.1
2018-Jul-12 15:25N 35°30' E 139°49'0 0.1
2018-Jul-12 14:55N 35°30' E 139°49'0 0.0
2018-Jul-12 14:25N 35°30' E 139°49'0 0.0
2018-Jul-12 13:52N 35°30' E 139°49'0 0.0
2018-Jul-12 13:25N 35°30' E 139°49'0 0.0
2018-Jul-12 12:58N 35°30' E 139°49'0 0.1
2018-Jul-12 12:22N 35°30' E 139°49'0 0.0
2018-Jul-12 11:58N 35°30' E 139°49'0 0.0
2018-Jul-12 11:25N 35°30' E 139°49'0 0.0
2018-Jul-12 10:58N 35°30' E 139°49'0 0.0
2018-Jul-12 10:28N 35°30' E 139°49'0 0.0
2018-Jul-12 09:52N 35°30' E 139°49'0 0.0
2018-Jul-12 09:22N 35°30' E 139°49'0 0.0
2018-Jul-12 08:34N 35°30' E 139°49'0 0.5
2018-Jul-12 08:28N 35°30' E 139°49'0 0.0
2018-Jul-12 07:55N 35°30' E 139°49'0 0.1
2018-Jul-12 07:25N 35°30' E 139°49'0 0.2
2018-Jul-12 07:00N 35°30' E 139°49'5 9.4
2018-Jul-12 06:30N 35°27' E 139°45'510.0
2018-Jul-12 06:00N 35°24' E 139°40'1 1.8
2018-Jul-12 05:25N 35°25' E 139°39'0 0.0
2018-Jul-12 04:55N 35°25' E 139°39'0 0.0
2018-Jul-12 04:25N 35°25' E 139°39'0 0.0
2018-Jul-12 03:58N 35°25' E 139°39'0 0.0
2018-Jul-12 03:25N 35°25' E 139°39'0 0.0
2018-Jul-12 02:55N 35°25' E 139°39'0 0.0
2018-Jul-12 02:28N 35°25' E 139°39'0 0.0
2018-Jul-12 01:55N 35°25' E 139°39'0 0.0
2018-Jul-12 01:28N 35°25' E 139°39'0 0.0
2018-Jul-12 00:58N 35°25' E 139°39'0 0.0
2018-Jul-12 00:28N 35°25' E 139°39'0 0.0
2018-Jul-11 23:58N 35°25' E 139°39'0 0.0
2018-Jul-11 23:28N 35°25' E 139°39'1 1.6
2018-Jul-11 23:00N 35°24' E 139°39'2 3.2
2018-Jul-11 22:30N 35°22' E 139°40'0 0.0
2018-Jul-11 22:00N 35°22' E 139°40'0 0.0
2018-Jul-11 21:30N 35°22' E 139°40'0 0.1
2018-Jul-11 21:00N 35°22' E 139°40'0 0.0
2018-Jul-11 20:30N 35°22' E 139°40'0 0.0
2018-Jul-11 20:00N 35°22' E 139°40'0 0.1
2018-Jul-11 19:30N 35°22' E 139°40'0 0.0
2018-Jul-11 19:00N 35°22' E 139°40'0 0.1
2018-Jul-11 18:30N 35°22' E 139°40'0 0.0
2018-Jul-11 18:00N 35°22' E 139°40'0 0.0
2018-Jul-11 17:30N 35°22' E 139°40'0 0.0
2018-Jul-11 17:00N 35°22' E 139°40'0 0.0
2018-Jul-11 16:30N 35°22' E 139°40'0 0.1
2018-Jul-11 16:00N 35°22' E 139°40'0 0.0
2018-Jul-11 15:30N 35°22' E 139°40'0 0.0
2018-Jul-11 15:00N 35°22' E 139°40'0 0.0
2018-Jul-11 14:27N 35°22' E 139°40'0 0.0
2018-Jul-11 14:00N 35°22' E 139°40'0 0.1
2018-Jul-11 13:30N 35°22' E 139°40'0 0.0
2018-Jul-11 12:57N 35°22' E 139°40'0 0.0
2018-Jul-11 12:27N 35°22' E 139°40'0 0.1
2018-Jul-11 12:00N 35°22' E 139°40'0 0.1
2018-Jul-11 11:30N 35°22' E 139°40'0 0.1
2018-Jul-11 11:00N 35°22' E 139°40'0 0.0
2018-Jul-11 10:30N 35°22' E 139°40'0 0.0
2018-Jul-11 10:00N 35°22' E 139°40'0 0.0
2018-Jul-11 09:30N 35°22' E 139°40'0 0.3
2018-Jul-11 09:00N 35°23' E 139°41'612.5
2018-Jul-11 08:31N 35°27' E 139°46'510.1
2018-Jul-11 08:01N 35°32' E 139°48'0 0.0
2018-Jul-11 07:21N 35°32' E 139°48'0 0.0
2018-Jul-11 07:00N 35°32' E 139°48'0 0.0
2018-Jul-11 06:27N 35°32' E 139°48'0 0.0
2018-Jul-11 05:57N 35°32' E 139°48'0 0.0
2018-Jul-11 05:30N 35°32' E 139°48'0 0.0
2018-Jul-11 05:00N 35°32' E 139°48'  
Track history (hours):
 
Tides and Currents Weather Stations Pressure Air Temp Water Temp Dewpoint Dewpoint Depression Visibility Wind Speed Wind Dir Waves Ship Positions

Nakaei Maru

Last reported at 2018-Jul-21 04:52 UTC. Time now 2018-Jul-21 19:34 UTC.
Position N 35°33' E 139°60'.

Length 95 m; draft 4 m.

Type: Tanker. MMSI: 431401925.

Date/timePositionNaut miles runAvg speedWind from/ knotsBaromVisibWave heightAir tempDewpointWater temp
2018-Jul-21 04:52N 35°33' E 139°60'412.4
2018-Jul-21 04:30N 35°32' E 139°55'510.9
2018-Jul-21 04:00N 35°32' E 139°48'0 0.4
2018-Jul-21 03:30N 35°32' E 139°48'0 0.0
2018-Jul-21 02:57N 35°32' E 139°48'0 0.0
2018-Jul-21 02:30N 35°32' E 139°48'0 0.0
2018-Jul-21 02:00N 35°32' E 139°48'0 0.0
2018-Jul-21 01:30N 35°32' E 139°48'0 0.0
2018-Jul-21 01:00N 35°32' E 139°48'0 0.0
2018-Jul-21 00:30N 35°32' E 139°48'0 0.0
2018-Jul-21 00:00N 35°32' E 139°48'1 2.5
2018-Jul-20 23:31N 35°31' E 139°49'1 2.1
2018-Jul-20 22:58N 35°31' E 139°50'0 0.0
2018-Jul-20 22:28N 35°31' E 139°50'0 0.0
2018-Jul-20 21:57N 35°31' E 139°50'0 0.0
2018-Jul-20 21:31N 35°31' E 139°50'0 0.0
2018-Jul-20 20:58N 35°31' E 139°50'0 0.0
2018-Jul-20 20:30N 35°31' E 139°50'0 0.0
2018-Jul-20 19:58N 35°31' E 139°50'0 0.0
2018-Jul-20 19:21N 35°31' E 139°50'0 0.0
2018-Jul-20 18:57N 35°31' E 139°50'0 0.0
2018-Jul-20 18:30N 35°31' E 139°50'0 0.0
2018-Jul-20 18:00N 35°31' E 139°50'0 0.0
2018-Jul-20 16:54N 35°31' E 139°50'0 0.0
2018-Jul-20 16:30N 35°31' E 139°50'0 0.0
2018-Jul-20 16:00N 35°31' E 139°50'0 0.0
2018-Jul-20 15:30N 35°31' E 139°50'0 0.0
2018-Jul-20 14:57N 35°31' E 139°50'0 0.0
2018-Jul-20 14:27N 35°31' E 139°50'0 0.0
2018-Jul-20 13:51N 35°31' E 139°50'0 0.0
2018-Jul-20 13:30N 35°31' E 139°50'0 0.0
2018-Jul-20 13:00N 35°31' E 139°50'0 0.1
2018-Jul-20 12:18N 35°31' E 139°50'0 0.0
2018-Jul-20 11:51N 35°31' E 139°50'0 0.0
2018-Jul-20 11:30N 35°31' E 139°50'0 0.0
2018-Jul-20 10:48N 35°31' E 139°50'0 0.0
2018-Jul-20 09:36N 35°31' E 139°50'0 0.5
2018-Jul-20 09:28N 35°31' E 139°50'3 7.4
2018-Jul-20 09:00N 35°31' E 139°46'1 0.1
2018-Jul-19 23:55N 35°31' E 139°46'1 1.9
2018-Jul-19 23:30N 35°30' E 139°46'4 8.1
2018-Jul-19 23:00N 35°27' E 139°43'611.5
2018-Jul-19 22:30N 35°30' E 139°49'0 0.3
2018-Jul-19 21:58N 35°30' E 139°50'0 0.0
2018-Jul-19 21:28N 35°30' E 139°50'0 0.0
2018-Jul-19 20:55N 35°30' E 139°50'0 0.0
2018-Jul-19 20:28N 35°30' E 139°50'0 0.0
2018-Jul-19 19:58N 35°30' E 139°50'0 0.0
2018-Jul-19 19:28N 35°30' E 139°50'0 0.0
2018-Jul-19 18:58N 35°30' E 139°50'0 0.0
2018-Jul-19 18:28N 35°30' E 139°50'0 0.0
2018-Jul-19 17:58N 35°30' E 139°50'0 0.0
2018-Jul-19 17:28N 35°30' E 139°50'0 0.0
2018-Jul-19 16:58N 35°30' E 139°50'0 0.0
2018-Jul-19 16:28N 35°30' E 139°50'0 0.0
2018-Jul-19 15:58N 35°30' E 139°50'0 0.0
2018-Jul-19 15:28N 35°30' E 139°50'0 0.0
2018-Jul-19 14:58N 35°30' E 139°50'0 0.0
2018-Jul-19 13:58N 35°30' E 139°50'0 0.0
2018-Jul-19 13:28N 35°30' E 139°50'0 0.0
2018-Jul-19 12:58N 35°30' E 139°50'0 0.0
2018-Jul-19 12:28N 35°30' E 139°50'0 0.0
2018-Jul-19 11:58N 35°30' E 139°50'0 0.0
2018-Jul-19 11:28N 35°30' E 139°50'0 0.0
2018-Jul-19 10:58N 35°30' E 139°50'0 0.0
2018-Jul-19 10:28N 35°30' E 139°50'0 0.0
2018-Jul-19 09:58N 35°30' E 139°50'0 0.0
2018-Jul-19 09:28N 35°30' E 139°50'0 0.0
2018-Jul-19 08:55N 35°30' E 139°50'0 0.0
2018-Jul-19 08:28N 35°30' E 139°50'0 0.0
2018-Jul-19 07:58N 35°30' E 139°50'0 0.0
2018-Jul-19 07:28N 35°30' E 139°50'0 0.0
2018-Jul-19 06:58N 35°30' E 139°50'0 0.0
2018-Jul-19 06:25N 35°30' E 139°50'0 0.0
2018-Jul-19 05:58N 35°30' E 139°50'0 0.1
2018-Jul-19 05:30N 35°30' E 139°49'3 5.2
2018-Jul-19 05:00N 35°32' E 139°48'0 0.0
2018-Jul-19 04:29N 35°32' E 139°48'0 0.0
2018-Jul-19 03:47N 35°32' E 139°48'0 0.0
2018-Jul-19 03:29N 35°32' E 139°48'0 0.0
2018-Jul-19 02:56N 35°32' E 139°48'0 0.0
2018-Jul-19 02:20N 35°32' E 139°48'0 0.0
2018-Jul-19 01:56N 35°32' E 139°48'0 0.0
2018-Jul-19 01:26N 35°32' E 139°48'0 0.0
2018-Jul-19 00:56N 35°32' E 139°48'0 0.0
2018-Jul-19 00:29N 35°32' E 139°48'1 1.8
2018-Jul-19 00:00N 35°31' E 139°48'2 2.5
2018-Jul-18 23:16N 35°30' E 139°50'0 0.0
2018-Jul-18 22:58N 35°30' E 139°50'0 0.1
2018-Jul-18 22:28N 35°30' E 139°50'0 0.0
2018-Jul-18 21:58N 35°30' E 139°50'0 0.0
2018-Jul-18 21:28N 35°30' E 139°50'0 0.0
2018-Jul-18 20:55N 35°30' E 139°50'0 0.0
2018-Jul-18 20:28N 35°30' E 139°50'0 0.0
2018-Jul-18 19:58N 35°30' E 139°50'0 0.0
2018-Jul-18 19:28N 35°30' E 139°50'0 0.0
2018-Jul-18 18:58N 35°30' E 139°50'0 0.0
2018-Jul-18 18:28N 35°30' E 139°50'0 0.0
2018-Jul-18 17:58N 35°30' E 139°50'0 0.1
2018-Jul-18 17:25N 35°30' E 139°50'0 0.1
2018-Jul-18 16:58N 35°30' E 139°50'0 0.0
2018-Jul-18 16:28N 35°30' E 139°50'0 0.0
2018-Jul-18 15:58N 35°30' E 139°50'0 0.0
2018-Jul-18 15:25N 35°30' E 139°50'0 0.0
2018-Jul-18 14:55N 35°30' E 139°50'0 0.0
2018-Jul-18 14:28N 35°30' E 139°50'0 0.0
2018-Jul-18 13:28N 35°30' E 139°50'0 0.0
2018-Jul-18 12:58N 35°30' E 139°50'0 0.0
2018-Jul-18 12:28N 35°30' E 139°50'0 0.1
2018-Jul-18 11:43N 35°30' E 139°50'0 0.0
2018-Jul-18 11:25N 35°30' E 139°50'0 0.0
2018-Jul-18 10:28N 35°30' E 139°50'0 0.0
2018-Jul-18 09:55N 35°30' E 139°50'0 0.0
2018-Jul-18 09:25N 35°30' E 139°50'0 0.0
2018-Jul-18 08:58N 35°30' E 139°50'0 0.0
2018-Jul-18 08:28N 35°30' E 139°50'0 0.0
2018-Jul-18 07:55N 35°30' E 139°50'0 0.0
2018-Jul-18 07:28N 35°30' E 139°50'0 0.0
2018-Jul-18 06:58N 35°30' E 139°50'3 6.3
2018-Jul-18 06:30N 35°31' E 139°46'1 0.1
2018-Jul-17 22:11N 35°31' E 139°46'0 0.3
2018-Jul-17 22:00N 35°31' E 139°46'4 7.6
2018-Jul-17 21:30N 35°29' E 139°42'3 6.0
2018-Jul-17 21:00N 35°27' E 139°45'3 5.8
2018-Jul-17 20:30N 35°28' E 139°49'611.5
2018-Jul-17 20:00N 35°31' E 139°55'10 0.3
2018-Jul-16 04:43N 35°36' E 140°06'1 4.2
2018-Jul-16 04:24N 35°35' E 140°05'5 7.4
2018-Jul-16 03:44N 35°34' E 139°59'1 4.4
2018-Jul-16 03:27N 35°34' E 139°57'511.6
2018-Jul-16 02:59N 35°32' E 139°51'3 5.8
2018-Jul-16 02:30N 35°32' E 139°48'0 0.0
2018-Jul-16 01:59N 35°32' E 139°48'0 0.0
2018-Jul-16 01:26N 35°32' E 139°48'0 0.0
2018-Jul-16 00:59N 35°32' E 139°48'0 0.0
2018-Jul-16 00:26N 35°32' E 139°48'0 0.0
2018-Jul-15 23:59N 35°32' E 139°48'0 0.0
2018-Jul-15 23:23N 35°32' E 139°48'0 0.0
2018-Jul-15 22:59N 35°32' E 139°48'0 0.1
2018-Jul-15 22:30N 35°32' E 139°48'2 4.1
2018-Jul-15 22:00N 35°30' E 139°49'1 1.1
2018-Jul-15 21:29N 35°30' E 139°50'0 0.0
2018-Jul-15 20:59N 35°30' E 139°50'0 0.0
2018-Jul-15 20:29N 35°30' E 139°50'0 0.0
2018-Jul-15 19:59N 35°30' E 139°50'0 0.0
2018-Jul-15 19:26N 35°30' E 139°50'0 0.0
2018-Jul-15 18:59N 35°30' E 139°50'0 0.0
2018-Jul-15 18:29N 35°30' E 139°50'0 0.0
2018-Jul-15 17:59N 35°30' E 139°50'0 0.0
2018-Jul-15 17:23N 35°30' E 139°50'0 0.0
2018-Jul-15 16:59N 35°30' E 139°50'0 0.0
2018-Jul-15 16:11N 35°30' E 139°50'0 0.0
2018-Jul-15 15:50N 35°30' E 139°50'0 0.0
2018-Jul-15 15:14N 35°30' E 139°50'0 0.0
2018-Jul-15 14:59N 35°30' E 139°50'0 0.0
2018-Jul-15 14:20N 35°30' E 139°50'0 0.0
2018-Jul-15 13:59N 35°30' E 139°50'0 0.0
2018-Jul-15 13:29N 35°30' E 139°50'0 0.0
2018-Jul-15 12:56N 35°30' E 139°50'0 0.0
2018-Jul-15 12:29N 35°30' E 139°50'0 0.0
2018-Jul-15 11:56N 35°30' E 139°50'0 0.0
2018-Jul-15 11:26N 35°30' E 139°50'0 0.0
2018-Jul-15 10:59N 35°30' E 139°50'0 0.0
2018-Jul-15 10:29N 35°30' E 139°50'0 0.0
2018-Jul-15 09:59N 35°30' E 139°50'0 0.0
2018-Jul-15 09:29N 35°30' E 139°50'0 0.0
2018-Jul-15 08:59N 35°30' E 139°50'0 0.0
2018-Jul-15 08:29N 35°30' E 139°50'0 0.0
2018-Jul-15 07:56N 35°30' E 139°50'0 0.5
2018-Jul-15 07:31N 35°30' E 139°49'3 6.4
2018-Jul-15 07:00N 35°31' E 139°46'0 0.0
2018-Jul-14 22:24N 35°31' E 139°46'1 2.7
2018-Jul-14 22:00N 35°30' E 139°45'4 7.9
2018-Jul-14 21:30N 35°27' E 139°43'3 6.4
2018-Jul-14 21:00N 35°24' E 139°45'0 0.1
2018-Jul-14 20:30N 35°24' E 139°45'0 0.0
2018-Jul-14 20:00N 35°24' E 139°45'0 0.0
2018-Jul-14 19:30N 35°24' E 139°45'0 0.0
2018-Jul-14 19:00N 35°24' E 139°45'0 0.0
2018-Jul-14 18:30N 35°24' E 139°45'0 0.1
2018-Jul-14 18:00N 35°24' E 139°45'0 0.0
2018-Jul-14 17:30N 35°24' E 139°45'0 0.0
2018-Jul-14 17:00N 35°24' E 139°45'0 0.0
2018-Jul-14 16:30N 35°24' E 139°45'0 0.0
2018-Jul-14 16:00N 35°24' E 139°45'0 0.0
2018-Jul-14 15:30N 35°24' E 139°45'0 0.1
2018-Jul-14 15:00N 35°24' E 139°45'0 0.0
2018-Jul-14 14:00N 35°24' E 139°45'0 0.0
2018-Jul-14 13:30N 35°24' E 139°45'0 0.0
2018-Jul-14 13:00N 35°24' E 139°45'0 0.0
2018-Jul-14 12:30N 35°24' E 139°45'0 0.0
2018-Jul-14 12:00N 35°24' E 139°45'0 0.1
2018-Jul-14 11:30N 35°24' E 139°45'0 0.1
2018-Jul-14 11:00N 35°24' E 139°45'0 0.1
2018-Jul-14 10:30N 35°24' E 139°45'0 0.1
2018-Jul-14 10:00N 35°24' E 139°45'0 0.1
2018-Jul-14 09:30N 35°24' E 139°45'0 0.0
2018-Jul-14 09:00N 35°24' E 139°45'0 0.0
2018-Jul-14 08:27N 35°24' E 139°45'4 8.4
2018-Jul-14 08:00N 35°24' E 139°40'1 2.1
2018-Jul-14 07:28N 35°24' E 139°40'0 0.0
2018-Jul-14 06:58N 35°24' E 139°40'0 0.0
2018-Jul-14 06:28N 35°24' E 139°40'0 0.0
2018-Jul-14 05:58N 35°24' E 139°40'0 0.0
2018-Jul-14 05:28N 35°24' E 139°40'0 0.2
2018-Jul-14 05:00N 35°24' E 139°40'4 7.3
2018-Jul-14 04:30N 35°26' E 139°44'510.8
2018-Jul-14 04:00N 35°30' E 139°47'1 0.3
2018-Jul-14 01:19N 35°31' E 139°46'0 0.0
2018-Jul-13 23:01N 35°31' E 139°46'0 0.0
2018-Jul-13 22:55N 35°31' E 139°46'0 1.0
2018-Jul-13 22:30N 35°31' E 139°46'4 7.8
2018-Jul-13 22:01N 35°28' E 139°42'3 6.7
2018-Jul-13 21:30N 35°28' E 139°46'3 6.7
2018-Jul-13 21:00N 35°30' E 139°50'0 0.1
2018-Jul-13 20:15N 35°30' E 139°50'0 0.0
2018-Jul-13 20:00N 35°30' E 139°50'0 0.0
2018-Jul-13 19:30N 35°30' E 139°50'0 0.0
2018-Jul-13 19:00N 35°30' E 139°50'0 0.0
2018-Jul-13 18:30N 35°30' E 139°50'0 0.0
2018-Jul-13 17:54N 35°30' E 139°50'0 0.0
2018-Jul-13 17:18N 35°30' E 139°50'0 0.0
2018-Jul-13 17:00N 35°30' E 139°50'0 0.0
2018-Jul-13 16:30N 35°30' E 139°50'0 0.0
2018-Jul-13 16:00N 35°30' E 139°50'0 0.0
2018-Jul-13 15:30N 35°30' E 139°50'0 0.0
2018-Jul-13 14:57N 35°30' E 139°50'0 0.0
2018-Jul-13 13:51N 35°30' E 139°50'0 0.0
2018-Jul-13 13:24N 35°30' E 139°50'0 0.0
2018-Jul-13 13:00N 35°30' E 139°50'0 0.0
2018-Jul-13 12:24N 35°30' E 139°50'0 0.0
2018-Jul-13 12:00N 35°30' E 139°50'0 0.0
2018-Jul-13 11:30N 35°30' E 139°50'0 0.0
2018-Jul-13 10:54N 35°30' E 139°50'0 0.0
2018-Jul-13 10:30N 35°30' E 139°50'0 0.0
2018-Jul-13 10:00N 35°30' E 139°50'0 0.0
2018-Jul-13 09:30N 35°30' E 139°50'0 0.0
2018-Jul-13 08:48N 35°30' E 139°50'0 0.0
2018-Jul-13 08:24N 35°30' E 139°50'0 0.5
2018-Jul-13 08:00N 35°30' E 139°49'2 5.0
2018-Jul-13 07:31N 35°32' E 139°48'0 0.0
2018-Jul-13 06:59N 35°32' E 139°48'0 0.0
2018-Jul-13 06:26N 35°32' E 139°48'0 0.0
2018-Jul-13 05:59N 35°32' E 139°48'0 0.0
2018-Jul-13 05:29N 35°32' E 139°48'0 0.0
2018-Jul-13 04:56N 35°32' E 139°48'0 0.0
2018-Jul-13 04:26N 35°32' E 139°48'0 0.0
2018-Jul-13 03:59N 35°32' E 139°48'0 0.0
2018-Jul-13 03:08N 35°32' E 139°48'0 0.0
2018-Jul-13 02:59N 35°32' E 139°48'0 0.0
2018-Jul-13 02:26N 35°32' E 139°48'0 0.0
2018-Jul-13 01:56N 35°32' E 139°48'1 2.0
2018-Jul-13 01:30N 35°31' E 139°48'2 3.5
2018-Jul-13 00:58N 35°30' E 139°49'0 0.0
2018-Jul-13 00:28N 35°30' E 139°49'0 0.0
2018-Jul-12 23:55N 35°30' E 139°49'0 0.0
2018-Jul-12 23:04N 35°30' E 139°49'0 0.0
2018-Jul-12 22:58N 35°30' E 139°49'0 0.0
2018-Jul-12 22:28N 35°30' E 139°49'0 0.0
2018-Jul-12 21:58N 35°30' E 139°49'0 0.0
2018-Jul-12 21:22N 35°30' E 139°49'0 0.0
2018-Jul-12 20:52N 35°30' E 139°49'0 0.0
2018-Jul-12 20:28N 35°30' E 139°49'0 0.0
2018-Jul-12 19:52N 35°30' E 139°49'0 0.1
2018-Jul-12 19:28N 35°30' E 139°49'0 0.0
2018-Jul-12 18:58N 35°30' E 139°49'0 0.1
2018-Jul-12 18:25N 35°30' E 139°50'0 0.0
2018-Jul-12 17:58N 35°30' E 139°50'0 0.0
2018-Jul-12 17:16N 35°30' E 139°50'0 0.0
2018-Jul-12 16:49N 35°30' E 139°50'0 0.0
2018-Jul-12 16:25N 35°30' E 139°50'0 0.0
2018-Jul-12 15:58N 35°30' E 139°50'0 0.1
2018-Jul-12 15:25N 35°30' E 139°49'0 0.1
2018-Jul-12 14:55N 35°30' E 139°49'0 0.0
2018-Jul-12 14:25N 35°30' E 139°49'0 0.0
2018-Jul-12 13:52N 35°30' E 139°49'0 0.0
2018-Jul-12 13:25N 35°30' E 139°49'0 0.0
2018-Jul-12 12:58N 35°30' E 139°49'0 0.1
2018-Jul-12 12:22N 35°30' E 139°49'0 0.0
2018-Jul-12 11:58N 35°30' E 139°49'0 0.0
2018-Jul-12 11:25N 35°30' E 139°49'0 0.0
2018-Jul-12 10:58N 35°30' E 139°49'0 0.0
2018-Jul-12 10:28N 35°30' E 139°49'0 0.0
2018-Jul-12 09:52N 35°30' E 139°49'0 0.0
2018-Jul-12 09:22N 35°30' E 139°49'0 0.0
2018-Jul-12 08:34N 35°30' E 139°49'0 0.5
2018-Jul-12 08:28N 35°30' E 139°49'0 0.0
2018-Jul-12 07:55N 35°30' E 139°49'0 0.1
2018-Jul-12 07:25N 35°30' E 139°49'0 0.2
2018-Jul-12 07:00N 35°30' E 139°49'5 9.4
2018-Jul-12 06:30N 35°27' E 139°45'510.0
2018-Jul-12 06:00N 35°24' E 139°40'1 1.8
2018-Jul-12 05:25N 35°25' E 139°39'0 0.0
2018-Jul-12 04:55N 35°25' E 139°39'0 0.0
2018-Jul-12 04:25N 35°25' E 139°39'0 0.0
2018-Jul-12 03:58N 35°25' E 139°39'0 0.0
2018-Jul-12 03:25N 35°25' E 139°39'0 0.0
2018-Jul-12 02:55N 35°25' E 139°39'0 0.0
2018-Jul-12 02:28N 35°25' E 139°39'0 0.0
2018-Jul-12 01:55N 35°25' E 139°39'0 0.0
2018-Jul-12 01:28N 35°25' E 139°39'0 0.0
2018-Jul-12 00:58N 35°25' E 139°39'0 0.0
2018-Jul-12 00:28N 35°25' E 139°39'0 0.0
2018-Jul-11 23:58N 35°25' E 139°39'0 0.0
2018-Jul-11 23:28N 35°25' E 139°39'1 1.6
2018-Jul-11 23:00N 35°24' E 139°39'2 3.2
2018-Jul-11 22:30N 35°22' E 139°40'0 0.0
2018-Jul-11 22:00N 35°22' E 139°40'0 0.0
2018-Jul-11 21:30N 35°22' E 139°40'0 0.1
2018-Jul-11 21:00N 35°22' E 139°40'0 0.0
2018-Jul-11 20:30N 35°22' E 139°40'0 0.0
2018-Jul-11 20:00N 35°22' E 139°40'0 0.1
2018-Jul-11 19:30N 35°22' E 139°40'0 0.0
2018-Jul-11 19:00N 35°22' E 139°40'0 0.1
2018-Jul-11 18:30N 35°22' E 139°40'0 0.0
2018-Jul-11 18:00N 35°22' E 139°40'0 0.0
2018-Jul-11 17:30N 35°22' E 139°40'0 0.0
2018-Jul-11 17:00N 35°22' E 139°40'0 0.0
2018-Jul-11 16:30N 35°22' E 139°40'0 0.1
2018-Jul-11 16:00N 35°22' E 139°40'0 0.0
2018-Jul-11 15:30N 35°22' E 139°40'0 0.0
2018-Jul-11 15:00N 35°22' E 139°40'0 0.0
2018-Jul-11 14:27N 35°22' E 139°40'0 0.0
2018-Jul-11 14:00N 35°22' E 139°40'0 0.1
2018-Jul-11 13:30N 35°22' E 139°40'0 0.0
2018-Jul-11 12:57N 35°22' E 139°40'0 0.0
2018-Jul-11 12:27N 35°22' E 139°40'0 0.1
2018-Jul-11 12:00N 35°22' E 139°40'0 0.1
2018-Jul-11 11:30N 35°22' E 139°40'0 0.1
2018-Jul-11 11:00N 35°22' E 139°40'0 0.0
2018-Jul-11 10:30N 35°22' E 139°40'0 0.0
2018-Jul-11 10:00N 35°22' E 139°40'0 0.0
2018-Jul-11 09:30N 35°22' E 139°40'0 0.3
2018-Jul-11 09:00N 35°23' E 139°41'612.5
2018-Jul-11 08:31N 35°27' E 139°46'510.1
2018-Jul-11 08:01N 35°32' E 139°48'0 0.0
2018-Jul-11 07:21N 35°32' E 139°48'0 0.0
2018-Jul-11 07:00N 35°32' E 139°48'0 0.0
2018-Jul-11 06:27N 35°32' E 139°48'0 0.0
2018-Jul-11 05:57N 35°32' E 139°48'0 0.0
2018-Jul-11 05:30N 35°32' E 139°48'0 0.0
2018-Jul-11 05:00N 35°32' E 139°48'  

Dump ship's entire track history